Time;durP1;ratioP1;P1;durP2;ratioP2;P2;SDS_P1;SDS_P2;PMS_P1;PMS_P2;Temp;Humidity;BMP_temperature;BMP_pressure;BME280_temperature;BME280_humidity;BME280_pressure;Samples;Min_cycle;Max_cycle;Signal;HPM_P1;HPM_P2
2021/04/22 00:02:02;;;;;;;73.35;39.22;;;6.80;99.90;;;;;;5053531;28;20021;-77
2021/04/22 00:04:29;;;;;;;62.03;34.70;;;6.80;99.90;;;;;;5054005;28;20037;-76
2021/04/22 00:06:55;;;;;;;67.82;36.50;;;6.90;99.90;;;;;;5054667;28;20372;-77
2021/04/22 00:09:21;;;;;;;74.05;37.67;;;7.00;99.90;;;;;;5053463;28;20016;-77
2021/04/22 00:11:47;;;;;;;64.80;35.33;;;7.00;99.90;;;;;;5062251;28;20021;-76
2021/04/22 00:14:13;;;;;;;66.75;36.28;;;7.10;99.90;;;;;;5054501;28;20029;-77
2021/04/22 00:16:40;;;;;;;62.30;35.50;;;7.10;99.90;;;;;;5054571;28;20032;-77
2021/04/22 00:19:06;;;;;;;63.10;34.30;;;7.20;99.90;;;;;;5054486;28;20104;-77
2021/04/22 00:21:32;;;;;;;64.57;34.78;;;7.30;99.90;;;;;;5054443;28;20501;-77
2021/04/22 00:23:58;;;;;;;81.88;42.35;;;7.30;99.90;;;;;;5067016;28;20048;-77
2021/04/22 00:26:24;;;;;;;66.90;37.00;;;7.30;99.90;;;;;;5073122;28;20123;-77
2021/04/22 00:28:49;;;;;;;73.15;37.63;;;7.20;99.90;;;;;;5072925;28;20060;-77
2021/04/22 00:31:15;;;;;;;67.93;36.35;;;7.20;99.90;;;;;;5072706;28;20083;-78
2021/04/22 00:33:41;;;;;;;60.53;32.30;;;7.20;99.90;;;;;;5074214;28;20423;-77
2021/04/22 00:36:07;;;;;;;58.88;32.47;;;7.30;99.90;;;;;;5072658;28;20470;-77
2021/04/22 00:38:33;;;;;;;55.60;30.08;;;7.40;99.90;;;;;;5074125;28;20032;-77
2021/04/22 00:40:58;;;;;;;56.00;29.85;;;7.40;99.90;;;;;;5072501;28;20127;-78
2021/04/22 00:43:25;;;;;;;50.30;27.92;;;7.50;99.90;;;;;;5073885;28;20036;-77
2021/04/22 00:45:50;;;;;;;56.15;29.65;;;7.50;99.90;;;;;;5074002;28;20024;-77
2021/04/22 00:48:22;;;;;;;53.92;29.13;;;7.50;99.90;;;;;;5073919;28;20386;-77
2021/04/22 00:50:50;;;;;;;54.55;29.45;;;7.50;99.90;;;;;;5073926;28;20031;-77
2021/04/22 00:53:16;;;;;;;53.20;32.10;;;7.40;99.90;;;;;;5072528;28;20032;-77
2021/04/22 00:55:42;;;;;;;67.68;33.53;;;7.40;99.90;;;;;;5073821;28;20012;-77
2021/04/22 00:58:08;;;;;;;73.85;37.35;;;7.40;99.90;;;;;;5073754;28;20033;-77
2021/04/22 01:00:51;;;;;;;52.88;31.08;;;7.40;99.90;;;;;;5073437;28;20029;-77
2021/04/22 01:03:17;;;;;;;55.70;30.08;;;7.40;99.90;;;;;;5072263;28;20129;-77
2021/04/22 01:05:49;;;;;;;55.30;32.42;;;7.20;99.90;;;;;;5073648;28;20427;-78
2021/04/22 01:08:14;;;;;;;57.70;31.35;;;7.20;99.90;;;;;;5073419;28;20147;-77
2021/04/22 01:10:40;;;;;;;62.75;33.75;;;7.10;99.90;;;;;;5072276;28;20074;-77
2021/04/22 01:13:06;;;;;;;61.72;33.35;;;7.10;99.90;;;;;;5073342;28;20036;-77
2021/04/22 01:15:32;;;;;;;70.68;34.65;;;7.00;99.90;;;;;;5071784;28;20386;-77
2021/04/22 01:17:59;;;;;;;65.20;33.08;;;7.00;99.90;;;;;;5072814;28;20028;-77
2021/04/22 01:20:27;;;;;;;61.47;34.85;;;7.00;99.90;;;;;;5072031;28;20025;-77
2021/04/22 01:22:53;;;;;;;61.42;33.60;;;6.90;99.90;;;;;;5073172;28;20028;-77
2021/04/22 01:25:31;;;;;;;66.35;34.85;;;6.80;99.90;;;;;;5071946;28;20040;-77
2021/04/22 01:27:57;;;;;;;61.80;33.65;;;6.70;99.90;;;;;;5071992;28;20100;-77
2021/04/22 01:30:30;;;;;;;62.60;33.15;;;6.60;99.90;;;;;;5072811;28;20013;-78
2021/04/22 01:32:56;;;;;;;57.70;31.77;;;6.50;99.90;;;;;;5072958;28;20493;-77
2021/04/22 01:35:26;;;;;;;69.80;36.63;;;6.40;99.90;;;;;;5071601;28;20036;-78
2021/04/22 01:37:52;;;;;;;68.97;35.53;;;6.30;99.90;;;;;;5072997;28;20043;-77
2021/04/22 01:40:19;;;;;;;64.20;34.05;;;6.20;99.90;;;;;;5071492;28;20039;-76
2021/04/22 01:42:45;;;;;;;66.28;34.22;;;6.10;99.90;;;;;;5072320;28;20032;-77
2021/04/22 01:45:12;;;;;;;67.03;35.53;;;6.00;99.90;;;;;;5073014;28;20070;-77
2021/04/22 01:47:38;;;;;;;67.07;35.83;;;5.90;99.90;;;;;;5072914;28;20096;-77
2021/04/22 01:50:07;;;;;;;73.90;36.45;;;5.80;99.90;;;;;;5072847;28;20107;-77
2021/04/22 01:52:33;;;;;;;70.63;36.50;;;5.80;99.90;;;;;;5071567;28;20021;-77
2021/04/22 01:54:59;;;;;;;69.57;35.15;;;5.70;99.90;;;;;;5072899;28;20146;-77
2021/04/22 01:57:25;;;;;;;66.97;35.10;;;5.60;99.90;;;;;;5071379;28;20056;-77
2021/04/22 01:59:51;;;;;;;72.97;35.13;;;5.60;99.90;;;;;;5072554;28;20093;-77
2021/04/22 02:02:17;;;;;;;69.90;35.47;;;5.50;99.90;;;;;;5071460;28;20047;-76
2021/04/22 02:04:44;;;;;;;66.38;35.90;;;5.40;99.90;;;;;;5071328;28;20490;-76
2021/04/22 02:07:11;;;;;;;75.70;38.75;;;5.40;99.90;;;;;;5072670;28;20028;-77
2021/04/22 02:09:36;;;;;;;87.95;42.03;;;5.30;99.90;;;;;;5072741;28;20104;-77
2021/04/22 02:12:03;;;;;;;82.90;40.53;;;5.30;99.90;;;;;;5071479;28;20124;-77
2021/04/22 02:14:28;;;;;;;81.97;40.75;;;5.30;99.90;;;;;;5072484;28;20020;-76
2021/04/22 02:16:54;;;;;;;83.60;40.80;;;5.20;99.90;;;;;;5072562;28;20028;-77
2021/04/22 02:19:20;;;;;;;76.32;37.50;;;5.20;99.90;;;;;;5071368;28;20021;-77
2021/04/22 02:21:45;;;;;;;78.43;37.72;;;5.20;99.90;;;;;;5071023;28;20024;-77
2021/04/22 02:24:11;;;;;;;74.40;37.95;;;5.20;99.90;;;;;;5072431;28;20059;-78
2021/04/22 02:26:37;;;;;;;66.80;35.88;;;5.20;99.90;;;;;;5072551;28;20457;-77
2021/04/22 02:29:03;;;;;;;82.78;40.17;;;5.10;99.90;;;;;;5074607;28;20056;-77
2021/04/22 02:31:28;;;;;;;78.50;38.55;;;5.10;99.90;;;;;;5076491;28;20036;-77
2021/04/22 02:33:54;;;;;;;99.78;48.72;;;5.00;99.90;;;;;;5075242;28;20024;-76
2021/04/22 02:36:20;;;;;;;83.43;42.17;;;4.90;99.90;;;;;;5076505;28;20048;-77
2021/04/22 02:38:47;;;;;;;76.63;38.20;;;4.90;99.90;;;;;;5076378;28;20562;-77
2021/04/22 02:41:13;;;;;;;68.88;35.20;;;4.80;99.90;;;;;;5076295;28;20017;-76
2021/04/22 02:43:39;;;;;;;67.18;33.85;;;4.80;99.90;;;;;;5074937;28;20028;-77
2021/04/22 02:46:05;;;;;;;71.05;35.53;;;4.80;99.90;;;;;;5075033;28;20036;-77
2021/04/22 02:48:30;;;;;;;70.93;34.28;;;4.70;99.90;;;;;;5074909;28;20021;-77
2021/04/22 02:50:57;;;;;;;65.25;32.90;;;4.70;99.90;;;;;;5074621;28;20159;-78
2021/04/22 02:53:24;;;;;;;61.85;32.58;;;4.60;99.90;;;;;;5074810;28;20102;-76
2021/04/22 02:55:49;;;;;;;62.83;33.00;;;4.50;99.90;;;;;;5076136;28;20096;-77
2021/04/22 02:58:16;;;;;;;64.78;33.00;;;4.50;99.90;;;;;;5076142;28;20103;-76
2021/04/22 03:00:43;;;;;;;63.50;34.33;;;4.50;99.90;;;;;;5074620;28;20025;-77
2021/04/22 03:03:09;;;;;;;59.67;31.90;;;4.40;99.90;;;;;;5075569;28;20045;-77
2021/04/22 03:05:36;;;;;;;61.78;30.00;;;4.40;99.90;;;;;;5074440;28;20478;-77
2021/04/22 03:08:04;;;;;;;55.67;27.33;;;4.30;99.90;;;;;;5075235;28;20108;-77
2021/04/22 03:10:31;;;;;;;53.72;28.08;;;4.30;99.90;;;;;;5075646;28;20021;-77
2021/04/22 03:12:57;;;;;;;54.08;28.52;;;4.20;99.90;;;;;;5075756;28;20021;-77
2021/04/22 03:15:23;;;;;;;60.53;29.58;;;4.10;99.90;;;;;;5075247;28;20024;-76
2021/04/22 03:17:49;;;;;;;64.47;33.20;;;4.10;99.90;;;;;;5074760;28;20017;-76
2021/04/22 03:20:15;;;;;;;61.63;32.25;;;4.00;99.90;;;;;;5074192;28;20032;-77
2021/04/22 03:22:42;;;;;;;65.10;32.95;;;4.00;99.90;;;;;;5074058;28;20458;-77
2021/04/22 03:25:09;;;;;;;61.67;31.90;;;4.00;99.90;;;;;;5075522;28;20532;-77
2021/04/22 03:27:35;;;;;;;61.95;30.23;;;4.00;99.90;;;;;;5073991;28;20067;-76
2021/04/22 03:30:03;;;;;;;53.58;29.55;;;3.90;99.90;;;;;;5075176;28;20025;-76
2021/04/22 03:32:29;;;;;;;106.05;52.72;;;3.70;99.90;;;;;;5075397;28;20038;-77
2021/04/22 03:34:54;;;;;;;121.07;56.75;;;3.70;99.90;;;;;;5075165;28;20024;-77
2021/04/22 03:37:20;;;;;;;116.40;55.17;;;3.70;99.90;;;;;;5073707;28;20021;-76
2021/04/22 03:39:46;;;;;;;76.82;36.17;;;3.70;99.90;;;;;;5073587;28;20474;-76
2021/04/22 03:42:16;;;;;;;61.60;31.75;;;3.70;99.90;;;;;;5075107;28;20067;-77
2021/04/22 03:44:42;;;;;;;58.83;30.88;;;3.60;99.90;;;;;;5073470;28;20040;-76
2021/04/22 03:47:07;;;;;;;39.45;21.95;;;3.60;99.90;;;;;;5074858;28;20375;-76
2021/04/22 03:49:33;;;;;;;39.60;24.48;;;3.50;99.90;;;;;;5073457;28;20496;-76
2021/04/22 03:51:58;;;;;;;55.00;26.80;;;3.60;99.90;;;;;;5074854;28;20032;-76
2021/04/22 03:54:24;;;;;;;45.55;25.45;;;3.60;99.90;;;;;;5073810;28;20013;-76
2021/04/22 03:56:50;;;;;;;46.38;24.52;;;3.60;99.90;;;;;;5074887;28;20422;-76
2021/04/22 03:59:15;;;;;;;32.38;19.10;;;3.60;99.90;;;;;;5075182;28;20064;-76
2021/04/22 04:01:41;;;;;;;36.78;21.17;;;3.60;99.90;;;;;;5074742;28;20056;-76
2021/04/22 04:04:07;;;;;;;46.28;25.23;;;3.60;99.90;;;;;;5071317;28;20033;-76
2021/04/22 04:06:34;;;;;;;37.95;22.67;;;3.60;99.90;;;;;;5053304;28;20029;-76
2021/04/22 04:08:59;;;;;;;51.60;27.10;;;3.70;99.90;;;;;;5065492;28;20020;-77
2021/04/22 04:11:25;;;;;;;48.00;24.20;;;3.70;99.90;;;;;;5073171;28;20035;-77
2021/04/22 04:13:51;;;;;;;40.20;23.20;;;3.80;99.90;;;;;;5073181;28;20024;-78
2021/04/22 04:16:17;;;;;;;43.38;24.00;;;3.80;99.90;;;;;;5073159;28;20031;-77
2021/04/22 04:18:43;;;;;;;40.00;22.85;;;3.90;99.90;;;;;;5074387;28;20024;-76
2021/04/22 04:21:08;;;;;;;41.35;22.42;;;3.90;99.90;;;;;;5074388;28;20398;-77
2021/04/22 04:23:34;;;;;;;38.00;21.92;;;3.90;99.90;;;;;;5072841;28;20035;-77
2021/04/22 04:25:59;;;;;;;109.75;45.90;;;3.90;99.90;;;;;;5072999;28;20021;-77
2021/04/22 04:28:25;;;;;;;99.15;44.58;;;3.90;99.90;;;;;;5073934;28;20037;-77
2021/04/22 04:30:51;;;;;;;71.32;35.90;;;3.90;99.90;;;;;;5072880;28;20021;-76
2021/04/22 04:33:16;;;;;;;69.55;34.55;;;3.90;99.90;;;;;;5072744;28;20058;-77
2021/04/22 04:35:42;;;;;;;52.63;27.35;;;3.90;99.90;;;;;;5068642;28;20116;-77
2021/04/22 04:38:08;;;;;;;54.08;27.40;;;3.90;99.90;;;;;;5063719;28;20021;-77
2021/04/22 04:40:33;;;;;;;69.50;32.35;;;3.90;99.90;;;;;;5056662;28;20375;-77
2021/04/22 04:43:00;;;;;;;78.82;38.50;;;4.00;99.90;;;;;;5052394;28;20482;-77
2021/04/22 04:45:26;;;;;;;73.70;36.53;;;4.00;99.90;;;;;;5052978;28;20104;-77
2021/04/22 04:47:51;;;;;;;78.00;38.03;;;4.00;99.90;;;;;;5053903;28;20525;-77
2021/04/22 04:50:17;;;;;;;84.45;38.05;;;4.10;99.90;;;;;;5053547;28;20017;-76
2021/04/22 04:52:44;;;;;;;76.20;38.65;;;4.10;99.90;;;;;;5053423;28;20351;-76
2021/04/22 04:55:10;;;;;;;89.25;43.58;;;4.20;99.90;;;;;;5052250;28;20055;-76
2021/04/22 04:57:36;;;;;;;89.00;45.28;;;4.40;99.90;;;;;;5053500;28;20064;-76
2021/04/22 05:00:05;;;;;;;120.45;63.17;;;4.60;99.90;;;;;;5053384;28;20056;-77
2021/04/22 05:02:30;;;;;;;117.13;64.57;;;4.70;99.90;;;;;;5053026;28;20071;-77
2021/04/22 05:04:56;;;;;;;158.27;83.10;;;4.90;99.90;;;;;;5053188;28;20049;-77
2021/04/22 05:07:22;;;;;;;159.50;71.00;;;5.10;99.90;;;;;;5066028;28;20043;-76
2021/04/22 05:09:48;;;;;;;131.88;63.33;;;5.20;99.90;;;;;;5071862;28;20029;-77
2021/04/22 05:12:13;;;;;;;104.10;46.60;;;5.30;99.90;;;;;;5071446;28;20025;-76
2021/04/22 05:14:39;;;;;;;85.15;42.42;;;5.40;99.90;;;;;;5071724;28;20481;-79
2021/04/22 05:17:05;;;;;;;83.15;43.88;;;5.50;99.90;;;;;;5073128;28;20386;-77
2021/04/22 05:19:30;;;;;;;100.60;56.75;;;5.60;99.90;;;;;;5071722;28;20024;-78
2021/04/22 05:21:56;;;;;;;95.47;49.03;;;5.70;99.90;;;;;;5072192;28;20386;-78
2021/04/22 05:24:22;;;;;;;79.03;37.03;;;5.90;99.90;;;;;;5071727;28;20398;-80
2021/04/22 05:26:47;;;;;;;80.53;36.20;;;6.10;99.90;;;;;;5071673;28;20107;-79
2021/04/22 05:29:13;;;;;;;85.05;40.00;;;6.30;99.90;;;;;;5072838;28;20397;-80
2021/04/22 05:31:42;;;;;;;70.80;35.97;;;6.50;99.90;;;;;;5072758;28;20024;-79
2021/04/22 05:34:08;;;;;;;56.20;31.15;;;6.70;99.90;;;;;;5071653;28;20078;-78
2021/04/22 05:36:33;;;;;;;51.20;29.45;;;6.80;99.90;;;;;;5070977;28;20393;-79
2021/04/22 05:39:00;;;;;;;54.97;29.50;;;7.00;99.90;;;;;;5067194;28;20116;-77
2021/04/22 05:41:25;;;;;;;61.05;34.28;;;7.10;99.90;;;;;;5060871;28;20111;-79
2021/04/22 05:43:51;;;;;;;72.32;31.77;;;7.30;99.90;;;;;;5070683;28;20150;-78
2021/04/22 05:46:17;;;;;;;48.88;24.50;;;7.50;99.90;;;;;;5068034;28;20025;-78
2021/04/22 05:48:42;;;;;;;70.47;33.42;;;7.70;99.90;;;;;;5068252;28;20036;-79
2021/04/22 05:51:08;;;;;;;64.55;30.20;;;7.80;99.90;;;;;;5070808;28;20100;-80
2021/04/22 05:53:34;;;;;;;59.10;32.53;;;7.90;99.90;;;;;;5070399;28;20466;-79
2021/04/22 05:55:59;;;;;;;69.85;37.25;;;7.90;99.90;;;;;;5070573;28;20017;-80
2021/04/22 05:58:25;;;;;;;74.20;33.65;;;8.00;99.90;;;;;;5062723;28;20025;-81
2021/04/22 06:00:51;;;;;;;60.05;29.38;;;8.00;99.90;;;;;;5067092;28;20056;-80
2021/04/22 06:03:16;;;;;;;78.93;37.83;;;8.20;99.90;;;;;;5061565;28;20395;-80
2021/04/22 06:05:42;;;;;;;50.70;26.95;;;8.20;99.90;;;;;;5060975;28;20446;-81
2021/04/22 06:08:08;;;;;;;49.67;26.88;;;8.20;99.90;;;;;;5064857;28;20024;-79
2021/04/22 06:10:34;;;;;;;62.42;30.75;;;8.30;99.90;;;;;;5071172;28;20024;-81
2021/04/22 06:13:00;;;;;;;61.50;30.90;;;8.20;99.90;;;;;;5069900;28;20119;-81
2021/04/22 06:15:25;;;;;;;54.50;28.50;;;8.20;99.90;;;;;;5069768;28;20115;-80
2021/04/22 06:17:51;;;;;;;41.15;22.20;;;8.20;99.90;;;;;;5067733;28;20017;-81
2021/04/22 06:20:18;;;;;;;45.05;24.23;;;8.10;99.90;;;;;;5067170;28;20031;-81
2021/04/22 06:22:44;;;;;;;57.47;28.17;;;8.00;99.90;;;;;;5071397;28;20052;-80
2021/04/22 06:25:12;;;;;;;39.90;23.48;;;7.90;99.90;;;;;;5062336;28;20036;-78
2021/04/22 06:27:37;;;;;;;41.72;23.20;;;7.90;99.90;;;;;;5069316;28;20021;-82
2021/04/22 06:30:05;;;;;;;39.60;24.40;;;7.70;99.90;;;;;;5070984;28;20389;-86
2021/04/22 06:32:31;;;;;;;56.58;30.63;;;7.70;99.90;;;;;;5067883;28;20116;-81
2021/04/22 06:34:56;;;;;;;59.88;30.60;;;7.60;99.90;;;;;;5068917;28;20170;-81
2021/04/22 06:37:22;;;;;;;41.05;25.58;;;7.60;99.90;;;;;;5065985;28;20032;-82
2021/04/22 06:39:48;;;;;;;42.83;24.02;;;7.50;99.90;;;;;;5071507;28;20027;-81
2021/04/22 06:42:14;;;;;;;60.53;31.13;;;7.40;99.90;;;;;;5071610;28;20020;-82
2021/04/22 06:44:40;;;;;;;55.25;28.48;;;7.50;99.90;;;;;;5071099;28;20543;-82
2021/04/22 06:47:05;;;;;;;42.90;25.27;;;7.50;99.90;;;;;;5070153;28;20036;-83
2021/04/22 06:49:31;;;;;;;47.47;27.15;;;7.50;99.90;;;;;;5071442;28;20022;-83
2021/04/22 06:51:57;;;;;;;44.72;25.92;;;7.40;99.90;;;;;;5070017;28;20070;-82
2021/04/22 06:54:22;;;;;;;45.10;24.42;;;7.40;99.90;;;;;;5070001;28;20123;-81
2021/04/22 06:56:49;;;;;;;41.50;23.60;;;7.40;99.90;;;;;;5068325;28;20094;-82
2021/04/22 06:59:15;;;;;;;42.38;24.10;;;7.40;99.90;;;;;;5069940;28;20115;-82
2021/04/22 07:01:41;;;;;;;43.35;23.17;;;7.30;99.90;;;;;;5071208;28;20443;-81
2021/04/22 07:04:06;;;;;;;43.88;25.15;;;7.30;99.90;;;;;;5070738;28;20096;-82
2021/04/22 07:06:32;;;;;;;42.85;22.90;;;7.30;99.90;;;;;;5069950;28;20123;-81
2021/04/22 07:08:58;;;;;;;41.60;22.38;;;7.20;99.90;;;;;;5070121;28;20048;-80
2021/04/22 07:11:23;;;;;;;53.60;33.97;;;7.20;99.90;;;;;;5069938;28;20055;-80
2021/04/22 07:13:49;;;;;;;42.08;23.60;;;7.20;99.90;;;;;;5071954;28;20017;-82
2021/04/22 07:16:15;;;;;;;43.38;25.20;;;7.20;99.90;;;;;;5073274;28;20363;-80
2021/04/22 07:18:41;;;;;;;31.40;17.95;;;7.10;99.90;;;;;;5073238;28;20024;-81
2021/04/22 07:21:07;;;;;;;29.33;17.15;;;6.70;99.90;;;;;;5073380;28;20040;-81
2021/04/22 07:23:32;;;;;;;26.95;16.85;;;6.50;99.90;;;;;;5073434;28;20048;-82
2021/04/22 07:25:58;;;;;;;27.30;16.40;;;6.20;99.90;;;;;;5074718;28;20020;-79
2021/04/22 07:28:24;;;;;;;20.70;14.85;;;6.10;99.90;;;;;;5072358;28;20035;-79
2021/04/22 07:30:50;;;;;;;23.95;14.32;;;5.80;99.90;;;;;;5070537;28;20031;-80
2021/04/22 07:33:16;;;;;;;24.90;15.00;;;5.70;99.90;;;;;;5073097;28;20032;-80
2021/04/22 07:35:42;;;;;;;19.75;12.90;;;5.60;99.90;;;;;;5073868;28;20028;-79
2021/04/22 07:38:13;;;;;;;18.58;12.73;;;5.60;99.90;;;;;;5073074;28;20394;-79
2021/04/22 07:40:43;;;;;;;19.52;12.18;;;5.40;99.90;;;;;;5073169;28;20021;-79
2021/04/22 07:43:10;;;;;;;23.05;13.35;;;5.20;99.90;;;;;;5068440;28;20033;-79
2021/04/22 07:45:40;;;;;;;19.63;11.45;;;5.10;99.90;;;;;;5089619;28;20507;-80
2021/04/22 07:48:07;;;;;;;22.00;12.68;;;5.00;99.90;;;;;;5073632;28;20039;-77
2021/04/22 07:50:33;;;;;;;23.15;12.52;;;4.80;99.90;;;;;;5072603;28;20024;-78
2021/04/22 07:52:59;;;;;;;20.80;11.48;;;4.80;99.90;;;;;;5071611;28;20028;-77
2021/04/22 07:55:32;;;;;;;26.15;14.90;;;4.70;99.90;;;;;;5072612;28;20021;-77
2021/04/22 07:57:58;;;;;;;25.88;13.95;;;4.70;99.90;;;;;;5072911;28;20032;-77
2021/04/22 08:00:25;;;;;;;24.90;14.52;;;4.60;99.90;;;;;;5073595;28;20028;-79
2021/04/22 08:02:51;;;;;;;23.70;14.68;;;4.60;99.90;;;;;;5072013;28;20036;-78
2021/04/22 08:05:19;;;;;;;20.25;13.07;;;4.60;99.90;;;;;;5072472;28;20035;-78
2021/04/22 08:07:45;;;;;;;20.13;11.57;;;4.60;99.90;;;;;;5068815;28;20039;-78
2021/04/22 08:10:15;;;;;;;16.80;10.10;;;4.50;99.90;;;;;;5071779;28;20024;-77
2021/04/22 08:12:40;;;;;;;18.65;11.20;;;4.40;99.90;;;;;;5073477;28;20459;-78
2021/04/22 08:15:09;;;;;;;20.95;12.07;;;4.40;99.90;;;;;;5071312;28;20033;-78
2021/04/22 08:17:39;;;;;;;16.35;9.90;;;4.40;99.90;;;;;;5072151;28;20031;-76
2021/04/22 08:20:07;;;;;;;18.88;9.90;;;4.40;99.90;;;;;;5072665;28;20017;-78
2021/04/22 08:22:34;;;;;;;16.48;9.27;;;4.40;99.90;;;;;;5072387;28;20083;-78
2021/04/22 08:25:01;;;;;;;20.13;11.60;;;4.30;99.90;;;;;;5069547;28;20044;-77
2021/04/22 08:27:26;;;;;;;15.98;9.88;;;4.20;99.90;;;;;;5073230;28;20029;-78
2021/04/22 08:29:53;;;;;;;19.00;10.23;;;4.20;99.90;;;;;;5071633;28;20023;-77
2021/04/22 08:32:19;;;;;;;16.70;9.45;;;4.20;99.90;;;;;;5073420;28;20029;-76
2021/04/22 08:34:44;;;;;;;15.95;10.30;;;4.10;99.90;;;;;;5071456;28;20024;-78
2021/04/22 08:37:10;;;;;;;12.88;7.65;;;3.90;99.90;;;;;;5070522;28;20051;-77
2021/04/22 08:39:36;;;;;;;18.17;8.63;;;3.80;99.90;;;;;;5067931;28;20036;-78
2021/04/22 08:42:04;;;;;;;13.50;7.22;;;3.80;99.90;;;;;;5063120;28;20025;-77
2021/04/22 08:44:29;;;;;;;9.70;5.53;;;3.90;99.90;;;;;;5072922;28;20068;-76
2021/04/22 08:46:56;;;;;;;13.07;6.75;;;4.00;99.90;;;;;;5071540;28;20040;-77
2021/04/22 08:49:22;;;;;;;11.50;5.35;;;4.10;99.90;;;;;;5060923;28;20036;-78
2021/04/22 08:51:49;;;;;;;14.07;6.05;;;4.20;99.90;;;;;;5053773;28;20158;-76
2021/04/22 08:54:15;;;;;;;14.90;6.40;;;4.40;99.90;;;;;;5052412;28;20509;-76
2021/04/22 08:56:42;;;;;;;13.93;6.05;;;4.60;99.90;;;;;;5053300;28;20535;-82
2021/04/22 08:59:08;;;;;;;12.88;5.70;;;4.80;99.90;;;;;;5069009;28;20028;-77
2021/04/22 09:01:33;;;;;;;12.90;6.63;;;5.00;99.90;;;;;;5071792;28;21367;-78
2021/04/22 09:04:05;;;;;;;63.60;26.65;;;5.10;99.90;;;;;;5071985;28;20032;-78
2021/04/22 09:06:34;;;;;;;29.90;13.95;;;5.20;99.90;;;;;;5071862;28;20103;-79
2021/04/22 09:09:00;;;;;;;14.45;7.70;;;5.40;99.90;;;;;;5067949;28;20035;-77
2021/04/22 09:11:27;;;;;;;24.27;9.63;;;5.40;99.90;;;;;;5066901;28;20036;-78
2021/04/22 09:13:55;;;;;;;35.45;13.90;;;5.50;99.90;;;;;;5066609;28;20028;-79
2021/04/22 09:16:26;;;;;;;41.45;16.30;;;5.60;99.90;;;;;;5068317;28;20012;-78
2021/04/22 09:18:56;;;;;;;38.47;17.38;;;5.70;99.90;;;;;;5066628;28;20475;-78
2021/04/22 09:21:26;;;;;;;27.42;14.43;;;5.90;99.90;;;;;;5058262;28;20371;-80
2021/04/22 09:24:00;;;;;;;24.40;11.98;;;6.20;99.90;;;;;;5060867;28;20067;-79
2021/04/22 09:26:41;;;;;;;35.38;12.95;;;6.30;99.90;;;;;;5069800;28;20039;-79
2021/04/22 09:29:08;;;;;;;25.75;10.48;;;6.50;99.90;;;;;;5066509;28;20052;-79
2021/04/22 09:31:34;;;;;;;20.92;10.88;;;6.70;99.90;;;;;;5063538;28;20021;-79
2021/04/22 09:34:05;;;;;;;21.92;8.15;;;6.70;99.90;;;;;;5069512;28;20370;-79
2021/04/22 09:36:52;;;;;;;17.98;9.65;;;6.50;99.90;;;;;;5066861;28;20100;-78
2021/04/22 09:39:21;;;;;;;19.35;10.60;;;6.50;99.90;;;;;;5072057;28;20059;-78
2021/04/22 09:41:48;;;;;;;15.80;8.52;;;6.50;99.90;;;;;;5069558;28;20041;-78
2021/04/22 09:44:16;;;;;;;16.00;7.85;;;6.60;99.90;;;;;;5066218;28;20102;-79
2021/04/22 09:46:45;;;;;;;22.85;10.85;;;6.70;99.90;;;;;;5065940;28;20103;-79
2021/04/22 09:49:17;;;;;;;22.60;13.35;;;6.80;99.90;;;;;;5061233;28;20016;-79
2021/04/22 09:51:45;;;;;;;16.67;8.48;;;7.20;99.90;;;;;;5063704;28;20024;-79
2021/04/22 09:54:21;;;;;;;20.25;10.60;;;7.40;97.80;;;;;;5059164;28;20013;-79
2021/04/22 09:56:56;;;;;;;17.52;10.27;;;7.50;93.00;;;;;;5067912;28;20024;-79
2021/04/22 09:59:25;;;;;;;17.48;9.63;;;7.80;84.40;;;;;;5073472;28;20024;-79
2021/04/22 10:02:07;;;;;;;19.80;7.75;;;8.20;87.00;;;;;;5062377;28;20020;-79
2021/04/22 10:04:41;;;;;;;15.40;7.18;;;8.20;75.00;;;;;;5064521;28;20393;-78
2021/04/22 10:07:22;;;;;;;15.57;9.45;;;8.10;69.00;;;;;;5062266;28;20513;-79
2021/04/22 10:09:49;;;;;;;14.88;8.23;;;8.50;75.90;;;;;;5067830;28;20024;-80
2021/04/22 10:12:28;;;;;;;9.82;6.20;;;8.60;72.30;;;;;;5068344;28;20016;-79
2021/04/22 10:14:55;;;;;;;14.52;8.40;;;8.60;67.00;;;;;;5061939;28;20048;-78
2021/04/22 10:17:25;;;;;;;11.00;6.97;;;8.40;65.20;;;;;;5067104;28;20021;-78
2021/04/22 10:20:04;;;;;;;13.35;7.60;;;8.30;65.10;;;;;;5063513;28;20024;-78
2021/04/22 10:22:35;;;;;;;12.60;5.82;;;8.30;64.30;;;;;;5066086;28;20425;-79
2021/04/22 10:25:04;;;;;;;12.95;6.10;;;8.40;65.60;;;;;;5062904;28;20396;-79
2021/04/22 10:27:30;;;;;;;19.17;12.57;;;8.70;65.80;;;;;;5064190;28;20021;-79
2021/04/22 10:29:57;;;;;;;13.88;8.48;;;9.00;72.10;;;;;;5070219;28;20024;-79
2021/04/22 10:32:24;;;;;;;12.65;8.27;;;9.30;63.70;;;;;;5070944;28;20707;-79
2021/04/22 10:34:51;;;;;;;10.18;5.20;;;9.40;65.00;;;;;;5071579;28;20028;-79
2021/04/22 10:37:19;;;;;;;10.38;5.25;;;9.50;60.10;;;;;;5060742;28;20021;-80
2021/04/22 10:39:46;;;;;;;5.90;3.92;;;9.30;57.50;;;;;;5069865;28;20025;-79
2021/04/22 10:42:12;;;;;;;5.78;3.53;;;9.40;56.40;;;;;;5070011;28;20017;-79
2021/04/22 10:44:38;;;;;;;6.25;3.42;;;9.30;52.90;;;;;;5068848;28;20094;-80
2021/04/22 10:47:05;;;;;;;13.45;5.28;;;9.00;48.50;;;;;;5061029;28;20392;-80
2021/04/22 10:49:31;;;;;;;7.78;4.30;;;9.20;49.00;;;;;;5060388;28;20478;-79
2021/04/22 10:51:57;;;;;;;9.15;3.45;;;9.20;48.40;;;;;;5068673;28;20052;-79
2021/04/22 10:54:23;;;;;;;3.72;2.90;;;9.40;49.80;;;;;;5064847;28;20462;-83
2021/04/22 10:57:08;;;;;;;10.98;7.25;;;9.40;49.80;;;;;;5066305;28;20017;-78
2021/04/22 10:59:35;;;;;;;13.35;7.20;;;9.50;51.70;;;;;;5072029;28;20040;-77
2021/04/22 11:02:12;;;;;;;12.65;4.80;;;9.50;52.80;;;;;;5074016;28;20024;-77
2021/04/22 11:04:37;;;;;;;12.57;5.30;;;9.40;53.60;;;;;;5087780;28;20040;-77
2021/04/22 11:07:13;;;;;;;9.68;4.38;;;9.20;54.10;;;;;;5073983;28;20036;-79
2021/04/22 11:09:40;;;;;;;47.55;21.90;;;9.20;54.90;;;;;;5073773;28;20016;-77
2021/04/22 11:12:05;;;;;;;9.60;6.63;;;9.20;53.60;;;;;;5074236;28;20029;-78
2021/04/22 11:14:52;;;;;;;21.13;11.95;;;9.10;54.60;;;;;;5073488;28;20095;-77
2021/04/22 11:17:21;;;;;;;22.85;8.75;;;9.10;55.90;;;;;;5069978;28;20036;-78
2021/04/22 11:19:50;;;;;;;81.22;27.75;;;9.10;56.30;;;;;;5073341;28;20051;-77
2021/04/22 11:22:16;;;;;;;77.63;28.45;;;9.10;55.90;;;;;;5069820;28;20466;-77
2021/04/22 11:25:03;;;;;;;10.13;6.57;;;9.00;54.80;;;;;;5071187;28;20043;-78
2021/04/22 11:27:32;;;;;;;61.78;24.35;;;8.70;54.90;;;;;;5073068;28;20051;-78
2021/04/22 11:30:02;;;;;;;17.92;7.18;;;8.40;54.50;;;;;;5075178;28;20104;-78
2021/04/22 11:32:31;;;;;;;14.00;7.22;;;8.40;55.30;;;;;;5073672;28;20044;-78
2021/04/22 11:35:15;;;;;;;209.23;70.72;;;8.50;55.50;;;;;;5073234;28;20059;-77
2021/04/22 11:37:55;;;;;;;147.48;45.40;;;8.40;56.70;;;;;;5073866;28;20039;-78
2021/04/22 11:40:48;;;;;;;24.10;8.98;;;8.50;58.90;;;;;;5065104;28;20025;-78
2021/04/22 11:43:20;;;;;;;94.97;31.33;;;8.50;57.80;;;;;;5072099;28;20037;-78
2021/04/22 11:45:47;;;;;;;;;;;8.70;58.10;;;;;;5073547;28;20017;-78
2021/04/22 11:48:13;;;;;;;46.78;14.68;;;9.10;58.70;;;;;;5071700;28;19950;-79
2021/04/22 11:50:44;;;;;;;18.23;6.90;;;8.90;55.20;;;;;;5072028;28;20052;-77
2021/04/22 11:53:12;;;;;;;25.80;8.30;;;9.20;55.40;;;;;;5074128;28;20407;-77
2021/04/22 11:55:44;;;;;;;31.75;9.70;;;9.30;53.10;;;;;;5073683;28;20055;-77
2021/04/22 11:58:15;;;;;;;26.20;8.15;;;9.30;52.00;;;;;;5073569;28;20025;-77
2021/04/22 12:00:52;;;;;;;7.03;4.07;;;9.30;49.80;;;;;;5071536;28;20068;-77
2021/04/22 12:03:38;;;;;;;11.50;4.82;;;9.20;48.80;;;;;;5072573;28;20036;-77
2021/04/22 12:06:16;;;;;;;12.68;5.97;;;9.50;49.00;;;;;;5070516;28;20021;-78
2021/04/22 12:08:46;;;;;;;8.07;4.40;;;9.60;49.30;;;;;;5072415;28;20028;-77
2021/04/22 12:11:19;;;;;;;7.55;3.53;;;9.60;50.10;;;;;;5069779;28;20426;-77
2021/04/22 12:13:45;;;;;;;7.68;4.10;;;9.60;49.70;;;;;;5071738;28;20028;-77
2021/04/22 12:16:11;;;;;;;28.20;9.18;;;9.60;49.40;;;;;;5073627;28;20024;-77
2021/04/22 12:18:40;;;;;;;51.72;16.45;;;9.50;48.80;;;;;;5072704;28;20020;-77
2021/04/22 12:21:08;;;;;;;6.18;3.50;;;9.50;49.50;;;;;;5063597;28;20079;-77
2021/04/22 12:23:37;;;;;;;16.10;6.30;;;9.50;48.70;;;;;;5065056;28;20056;-79
2021/04/22 12:26:25;;;;;;;12.30;4.50;;;9.50;48.40;;;;;;5062073;28;20525;-78
2021/04/22 12:28:58;;;;;;;11.68;4.80;;;9.80;48.70;;;;;;5060093;28;20032;-78
2021/04/22 12:31:36;;;;;;;20.25;7.13;;;10.00;48.80;;;;;;5063482;28;20081;-77
2021/04/22 12:34:13;;;;;;;67.85;20.23;;;10.00;48.00;;;;;;5065626;28;20048;-77
2021/04/22 12:36:52;;;;;;;15.52;5.68;;;10.20;47.70;;;;;;5064167;28;20501;-77
2021/04/22 12:39:38;;;;;;;8.50;4.45;;;10.50;49.30;;;;;;5070987;28;20031;-77
2021/04/22 12:42:09;;;;;;;44.45;15.23;;;10.70;47.70;;;;;;5068091;28;20386;-78
2021/04/22 12:44:37;;;;;;;44.92;15.18;;;10.90;48.00;;;;;;5071122;28;20056;-79